Ms Signal — SFWL — position and weather

sailwx.info

Track history (hours):
 
Tides and Currents Weather Stations Pressure Air Temp Water Temp Dewpoint Dewpoint Depression Visibility Wind Speed Wind Dir Waves Ship Positions

Ms Signal

Last reported at 2017-Aug-19 09:01 UTC. Time now 2017-Aug-19 18:37 UTC.
Position N 59°21' E 018°08'.

Length 16 m.

Type: Diving. MMSI: 265648340.

Date/timePositionNaut miles runAvg speedWind from/ knotsBaromVisibWave heightAir tempDewpointWater temp
2017-Aug-19 09:01N 59°21' E 018°08'0 0.8
2017-Aug-19 09:00N 59°21' E 018°08'2 3.8
2017-Aug-19 08:30N 59°19' E 018°05'0 0.4
2017-Aug-19 07:57N 59°19' E 018°05'0 0.5
2017-Aug-19 07:25N 59°19' E 018°05'0 0.0
2017-Aug-19 07:00N 59°19' E 018°05'2 4.5
2017-Aug-19 06:29N 59°20' E 018°09'1 0.0
2017-Aug-18 07:29N 59°21' E 018°08'3 4.1
2017-Aug-18 06:39N 59°19' E 018°02'1 4.1
2017-Aug-18 06:30N 59°19' E 018°01'1 1.4
2017-Aug-18 06:00N 59°19' E 018°03'2 3.2
2017-Aug-18 05:29N 59°18' E 018°05'3 5.9
2017-Aug-18 05:00N 59°21' E 018°08'0 0.0
2017-Aug-17 12:53N 59°21' E 018°08'1 1.4
2017-Aug-17 12:29N 59°20' E 018°09'4 5.9
2017-Aug-17 11:50N 59°19' E 018°02'1 3.1
2017-Aug-17 11:27N 59°19' E 018°04'0 0.0
2017-Aug-17 10:57N 59°19' E 018°04'0 0.0
2017-Aug-17 09:45N 59°19' E 018°04'0 0.1
2017-Aug-17 09:30N 59°19' E 018°04'0 0.0
2017-Aug-17 08:59N 59°19' E 018°04'0 0.0
2017-Aug-17 08:29N 59°19' E 018°04'0 0.0
2017-Aug-17 07:53N 59°19' E 018°04'0 0.0
2017-Aug-17 07:22N 59°19' E 018°04'0 0.0
2017-Aug-17 06:58N 59°19' E 018°04'0 0.0
2017-Aug-17 06:29N 59°19' E 018°04'1 2.3
2017-Aug-17 05:58N 59°19' E 018°02'2 5.0
2017-Aug-17 05:30N 59°19' E 018°06'2 0.1
2017-Aug-16 09:49N 59°21' E 018°08'2 5.0
2017-Aug-16 09:30N 59°19' E 018°06'0 0.7
2017-Aug-16 08:54N 59°19' E 018°06'0 0.5
2017-Aug-16 08:25N 59°19' E 018°05'2 5.1
2017-Aug-16 08:00N 59°19' E 018°09'  
Track history (hours):
 
Tides and Currents Weather Stations Pressure Air Temp Water Temp Dewpoint Dewpoint Depression Visibility Wind Speed Wind Dir Waves Ship Positions

Ms Signal

Last reported at 2017-Aug-19 09:01 UTC. Time now 2017-Aug-19 18:37 UTC.
Position N 59°21' E 018°08'.

Length 16 m.

Type: Diving. MMSI: 265648340.

Date/timePositionNaut miles runAvg speedWind from/ knotsBaromVisibWave heightAir tempDewpointWater temp
2017-Aug-19 09:01N 59°21' E 018°08'0 0.8
2017-Aug-19 09:00N 59°21' E 018°08'2 3.8
2017-Aug-19 08:30N 59°19' E 018°05'0 0.4
2017-Aug-19 07:57N 59°19' E 018°05'0 0.5
2017-Aug-19 07:25N 59°19' E 018°05'0 0.0
2017-Aug-19 07:00N 59°19' E 018°05'2 4.5
2017-Aug-19 06:29N 59°20' E 018°09'1 0.0
2017-Aug-18 07:29N 59°21' E 018°08'3 4.1
2017-Aug-18 06:39N 59°19' E 018°02'1 4.1
2017-Aug-18 06:30N 59°19' E 018°01'1 1.4
2017-Aug-18 06:00N 59°19' E 018°03'2 3.2
2017-Aug-18 05:29N 59°18' E 018°05'3 5.9
2017-Aug-18 05:00N 59°21' E 018°08'0 0.0
2017-Aug-17 12:53N 59°21' E 018°08'1 1.4
2017-Aug-17 12:29N 59°20' E 018°09'4 5.9
2017-Aug-17 11:50N 59°19' E 018°02'1 3.1
2017-Aug-17 11:27N 59°19' E 018°04'0 0.0
2017-Aug-17 10:57N 59°19' E 018°04'0 0.0
2017-Aug-17 09:45N 59°19' E 018°04'0 0.1
2017-Aug-17 09:30N 59°19' E 018°04'0 0.0
2017-Aug-17 08:59N 59°19' E 018°04'0 0.0
2017-Aug-17 08:29N 59°19' E 018°04'0 0.0
2017-Aug-17 07:53N 59°19' E 018°04'0 0.0
2017-Aug-17 07:22N 59°19' E 018°04'0 0.0
2017-Aug-17 06:58N 59°19' E 018°04'0 0.0
2017-Aug-17 06:29N 59°19' E 018°04'1 2.3
2017-Aug-17 05:58N 59°19' E 018°02'2 5.0
2017-Aug-17 05:30N 59°19' E 018°06'2 0.1
2017-Aug-16 09:49N 59°21' E 018°08'2 5.0
2017-Aug-16 09:30N 59°19' E 018°06'0 0.7
2017-Aug-16 08:54N 59°19' E 018°06'0 0.5
2017-Aug-16 08:25N 59°19' E 018°05'2 5.1
2017-Aug-16 08:00N 59°19' E 018°09'  

Dump ship's entire track history